Pagrindinis puslapis
METAR-TAF:

METAR-TAF

Oro uostai :

Port Sudan, Sudanas

platuma: 19-26N, ilguma: 037-14E, Aukštis: 138 m

Dabartinis oras

Ataskaita buvo paskelbta 7 valandos ir 35 minutes, ne 11:00 UTC
Vėjas 13 kt iš Šiaurės Rytų
Temperatūra
Slėgis 1016 hPa
Matomumas 10 km arba daugiau
Mažai debesys ne aukštis 3000 ft

METAR: HSPN 221100Z 04013KT 9999 FEW030 25//14 Q1016

Laikas: 20:35 (18:35 UTC)

Prognozė

Ataskaita buvo paskelbta 1 valandą ir 35 minutes, ne 17:00 UTC
Prognozė galioja nuo 22 metu 18 UTC su 23 metu 24 UTC
Vėjas 12 kt iš Šiaurės su gūsio iki 22 kt
Matomumas 10 km arba daugiau
Mažai debesys ne aukštis 3000 ft
Išsisklaidę debesys ne aukštis 13000 ft
Tapsmas
nuo 22 metu 22 UTC su 22 metu 24 UTC
Vėjas 8 kt iš Šiaurės/Šiaurės Vakarų
Laikinai
nuo 23 metu 08 UTC su 23 metu 16 UTC
Vėjas 14 kt iš Šiaurės Rytų su gūsio iki 25 kt

TAF: HSPN 221700Z 2218/2324 36012G22KT 9999 FEW030 SCT130 BECMG 2222/2224 34008KT TEMPO 2308/2316 04014G25KT

Orai ataskaitas ir orų prognozės (METAR, TAF).

turimą stotys yra geltonos ir raudonos taškus žemėlapyje.

Perkelti pele per norėdami pamatyti stoties vardą.

Tada spustelėkite, norėdami matyti oro stebėjimo ir prognozės.

Norėdami pakeisti žemėlapį: spustelėkite ant žalios mygtukų su juodo kryžiaus žemyn,; žalią mygtuką su brūkšneliu, jei norite nutolinti; arba žalių rodyklių gretimoms žemėlapius.


METAR-TAF: